createdAt,value
2022-08-02T00:02:08.505Z,14.81
2022-08-02T00:05:13.596Z,14.77
2022-08-02T00:08:16.298Z,14.86
2022-08-02T00:11:19.015Z,14.91
2022-08-02T00:14:21.636Z,14.67
2022-08-02T00:17:24.424Z,14.40
2022-08-02T00:20:28.358Z,14.54
2022-08-02T00:23:31.067Z,14.34
2022-08-02T00:26:33.756Z,14.23
2022-08-02T00:29:42.699Z,14.20
2022-08-02T00:32:55.759Z,14.17
2022-08-02T00:35:59.694Z,14.24
2022-08-02T00:39:02.300Z,14.21
2022-08-02T00:42:05.283Z,14.30
2022-08-02T00:45:09.037Z,14.29
2022-08-02T00:48:12.871Z,14.07
2022-08-02T00:51:18.067Z,14.02
2022-08-02T00:54:20.849Z,14.09
2022-08-02T00:57:23.498Z,13.99
2022-08-02T01:00:26.107Z,14.16
2022-08-02T01:03:32.923Z,14.21
2022-08-02T01:06:37.151Z,14.23
2022-08-02T01:09:39.733Z,14.35
2022-08-02T01:12:42.380Z,14.20
2022-08-02T01:15:52.317Z,14.25
2022-08-02T01:19:07.828Z,13.96
2022-08-02T01:23:00.601Z,14.02
2022-08-02T01:26:19.037Z,13.97
2022-08-02T01:29:30.279Z,14.14
2022-08-02T01:32:37.950Z,14.26
2022-08-02T01:35:50.723Z,13.97
2022-08-02T01:38:57.111Z,13.83
2022-08-02T01:42:01.570Z,13.72
2022-08-02T01:45:09.040Z,13.85
2022-08-02T01:48:14.033Z,13.74
2022-08-02T01:51:19.506Z,13.87
2022-08-02T01:54:25.939Z,13.99
2022-08-02T01:57:33.595Z,13.77
2022-08-02T02:00:44.610Z,13.67
2022-08-02T02:03:49.589Z,13.82
2022-08-02T02:06:53.620Z,13.71
2022-08-02T02:09:57.817Z,13.51
2022-08-02T02:13:03.914Z,13.66
2022-08-02T02:16:08.542Z,13.80
2022-08-02T02:19:14.103Z,13.86
2022-08-02T02:22:24.066Z,13.91
2022-08-02T02:25:36.123Z,13.85
2022-08-02T02:28:47.724Z,13.81
2022-08-02T02:31:55.773Z,13.78
2022-08-02T02:35:02.527Z,13.41
2022-08-02T02:38:07.535Z,13.21
2022-08-02T02:41:11.506Z,13.20
2022-08-02T02:44:21.509Z,13.18
2022-08-02T02:47:40.302Z,13.22
2022-08-02T02:50:45.346Z,13.13
2022-08-02T02:54:30.158Z,13.42
2022-08-02T02:57:13.037Z,13.18
2022-08-02T03:00:16.162Z,13.48
2022-08-02T03:03:21.462Z,13.04
2022-08-02T03:06:25.521Z,13.11
2022-08-02T03:09:28.146Z,13.43
2022-08-02T03:12:32.502Z,13.48
2022-08-02T03:15:35.894Z,13.23
2022-08-02T03:18:40.877Z,13.22
2022-08-02T03:21:43.909Z,13.31
2022-08-02T03:24:46.549Z,12.94
2022-08-02T03:27:49.139Z,13.08
2022-08-02T03:30:51.842Z,13.15
2022-08-02T03:33:57.174Z,13.38
2022-08-02T03:37:00.809Z,13.21
2022-08-02T03:40:04.531Z,12.99
2022-08-02T03:43:08.102Z,13.05
2022-08-02T03:46:11.275Z,13.40
2022-08-02T03:49:18.453Z,13.29
2022-08-02T03:52:21.567Z,13.20
2022-08-02T03:55:24.404Z,13.33
2022-08-02T03:58:27.413Z,12.99
2022-08-02T04:01:30.007Z,12.96
2022-08-02T04:04:33.974Z,12.96
2022-08-02T04:08:34.574Z,13.24
2022-08-02T04:11:16.790Z,13.42
2022-08-02T04:14:19.842Z,13.33
2022-08-02T04:17:24.930Z,13.26
2022-08-02T04:20:32.502Z,13.30
2022-08-02T04:23:37.460Z,13.46
2022-08-02T04:26:44.053Z,13.40
2022-08-02T04:29:53.545Z,13.64
2022-08-02T04:32:56.623Z,13.68
2022-08-02T04:36:00.688Z,13.77
2022-08-02T04:39:03.473Z,13.76
2022-08-02T04:42:06.926Z,13.79
2022-08-02T04:45:11.836Z,13.71
2022-08-02T04:48:19.374Z,13.73
2022-08-02T04:51:23.306Z,13.82
2022-08-02T04:54:40.877Z,13.78
2022-08-02T04:57:58.694Z,13.75
2022-08-02T05:01:01.556Z,13.52
2022-08-02T05:04:04.684Z,13.60
2022-08-02T05:07:08.611Z,13.76
2022-08-02T05:10:11.597Z,13.75
2022-08-02T05:13:14.188Z,13.73
2022-08-02T05:16:16.843Z,13.42
2022-08-02T05:19:19.418Z,13.56
2022-08-02T05:22:23.358Z,13.47
2022-08-02T05:25:26.914Z,13.63
2022-08-02T05:28:29.491Z,13.72
2022-08-02T05:31:34.471Z,13.76
2022-08-02T05:34:37.033Z,13.78
2022-08-02T05:37:42.200Z,13.91
2022-08-02T05:40:54.383Z,13.93
2022-08-02T05:43:57.914Z,14.05
2022-08-02T05:47:00.521Z,14.45
2022-08-02T05:50:03.197Z,14.40
2022-08-02T05:53:17.114Z,14.61
2022-08-02T05:56:26.047Z,14.71
2022-08-02T05:59:34.418Z,14.80
2022-08-02T06:02:49.158Z,14.91
2022-08-02T06:05:57.216Z,15.07
2022-08-02T06:09:03.928Z,15.38
2022-08-02T06:12:10.737Z,15.23
2022-08-02T06:15:15.177Z,15.49
2022-08-02T06:18:19.059Z,15.74
2022-08-02T06:22:33.089Z,15.77
2022-08-02T06:24:56.507Z,16.04
2022-08-02T06:28:00.796Z,16.19
2022-08-02T06:31:03.886Z,16.37
2022-08-02T06:34:06.494Z,16.19
2022-08-02T06:37:15.630Z,16.47
2022-08-02T06:40:27.931Z,16.58
2022-08-02T06:43:39.327Z,16.52
2022-08-02T06:47:10.032Z,16.72
2022-08-02T06:50:05.891Z,16.95
2022-08-02T06:53:09.088Z,16.71
2022-08-02T06:56:13.018Z,16.85
2022-08-02T06:59:15.623Z,16.94
2022-08-02T07:02:18.314Z,17.30
2022-08-02T07:05:20.966Z,17.10
2022-08-02T07:08:23.818Z,17.09
2022-08-02T07:11:27.787Z,17.56
2022-08-02T07:14:30.367Z,17.40
2022-08-02T07:17:35.926Z,16.89
2022-08-02T07:20:38.516Z,17.26
2022-08-02T07:23:41.067Z,17.44
2022-08-02T07:27:08.602Z,17.89
2022-08-02T07:30:09.050Z,17.88
2022-08-02T07:33:11.761Z,17.92
2022-08-02T07:36:34.403Z,17.96
2022-08-02T07:39:37.574Z,18.06
2022-08-02T07:42:51.871Z,17.58
2022-08-02T07:46:00.830Z,17.98
2022-08-02T07:49:03.809Z,17.94
2022-08-02T07:52:06.425Z,18.14
2022-08-02T07:55:11.563Z,18.15
2022-08-02T07:58:16.386Z,18.33
2022-08-02T08:01:20.305Z,18.86
2022-08-02T08:04:23.395Z,18.99
2022-08-02T08:07:25.963Z,18.51
2022-08-02T08:10:29.093Z,18.80
2022-08-02T08:13:33.042Z,18.55
2022-08-02T08:16:35.885Z,18.96
2022-08-02T08:19:50.870Z,19.03
2022-08-02T08:22:54.899Z,19.29
2022-08-02T08:25:57.489Z,19.94
2022-08-02T08:29:06.412Z,20.10
2022-08-02T08:32:14.125Z,20.01
2022-08-02T08:35:19.187Z,19.93
2022-08-02T08:38:22.074Z,20.16
2022-08-02T08:41:25.647Z,20.30
2022-08-02T08:44:34.745Z,20.66
2022-08-02T08:47:39.834Z,20.86
2022-08-02T08:50:48.583Z,21.12
2022-08-02T08:53:55.375Z,21.44
2022-08-02T08:56:58.629Z,21.34
2022-08-02T09:00:02.878Z,21.58
2022-08-02T09:03:06.966Z,21.88
2022-08-02T09:06:09.601Z,21.85
2022-08-02T09:09:12.225Z,21.27
2022-08-02T09:12:15.962Z,21.75
2022-08-02T09:15:25.885Z,21.87
2022-08-02T09:18:32.384Z,21.26
2022-08-02T09:21:37.476Z,21.81
2022-08-02T09:24:45.681Z,22.62
2022-08-02T09:27:49.380Z,22.64
2022-08-02T09:30:53.842Z,22.94
2022-08-02T09:33:58.441Z,22.26
2022-08-02T09:37:01.135Z,22.76
2022-08-02T09:40:05.601Z,22.53
2022-08-02T09:43:09.924Z,22.96
2022-08-02T09:46:15.874Z,23.93
2022-08-02T09:49:21.173Z,23.55
2022-08-02T09:52:37.398Z,23.56
2022-08-02T09:55:56.220Z,23.75
2022-08-02T09:58:58.918Z,24.49
2022-08-02T10:02:14.812Z,23.24
2022-08-02T10:05:22.033Z,24.94
2022-08-02T10:08:26.478Z,25.70
2022-08-02T10:11:29.740Z,25.08
2022-08-02T10:14:34.718Z,25.18
2022-08-02T10:17:39.103Z,25.89
2022-08-02T10:20:45.503Z,26.09
2022-08-02T10:23:50.614Z,26.45
2022-08-02T10:26:54.710Z,25.39
2022-08-02T10:29:59.915Z,24.50
2022-08-02T10:33:05.356Z,25.14
2022-08-02T10:36:11.011Z,26.28
2022-08-02T10:39:14.179Z,26.53
2022-08-02T10:42:47.882Z,26.31
2022-08-02T10:45:51.954Z,26.74
2022-08-02T10:52:33.075Z,27.21
2022-08-02T10:55:45.823Z,26.95
2022-08-02T10:58:48.460Z,27.55
2022-08-02T11:01:51.800Z,28.50
2022-08-02T11:05:08.853Z,28.68
2022-08-02T11:08:21.959Z,28.38
2022-08-02T11:11:54.298Z,28.18
2022-08-02T11:15:00.236Z,29.31
2022-08-02T11:18:02.802Z,28.37
2022-08-02T11:21:28.281Z,27.87
2022-08-02T11:24:32.479Z,29.12
2022-08-02T11:27:35.118Z,29.05
2022-08-02T11:30:38.888Z,29.32
2022-08-02T11:33:41.607Z,29.85
2022-08-02T11:36:47.330Z,29.63
2022-08-02T11:39:52.563Z,29.43
2022-08-02T11:42:55.197Z,30.01
2022-08-02T11:45:57.946Z,29.93
2022-08-02T11:49:12.679Z,30.24
2022-08-02T11:52:17.047Z,29.95
2022-08-02T11:55:19.665Z,29.37
2022-08-02T11:58:22.470Z,29.47
2022-08-02T12:01:25.066Z,29.21
2022-08-02T12:04:27.682Z,29.23
2022-08-02T12:07:35.345Z,29.51
2022-08-02T12:10:48.372Z,29.29
2022-08-02T12:13:56.781Z,29.28
2022-08-02T12:17:18.021Z,29.28
2022-08-02T12:20:21.226Z,29.37
2022-08-02T12:23:25.683Z,29.42
2022-08-02T12:26:28.428Z,29.71
2022-08-02T12:29:58.446Z,29.65
2022-08-02T12:32:55.265Z,29.30
2022-08-02T12:35:58.075Z,29.76
2022-08-02T12:39:02.611Z,29.77
2022-08-02T12:42:06.439Z,29.83
2022-08-02T12:45:09.792Z,29.95
2022-08-02T12:48:12.506Z,29.24
2022-08-02T12:51:51.130Z,29.39
2022-08-02T12:54:50.209Z,30.04
2022-08-02T12:57:55.150Z,30.13
2022-08-02T13:00:59.745Z,29.89
2022-08-02T13:04:10.221Z,30.03
2022-08-02T13:07:16.029Z,30.06
2022-08-02T13:10:21.344Z,29.64
2022-08-02T13:13:23.958Z,29.59
2022-08-02T13:16:30.685Z,29.40
2022-08-02T13:19:34.206Z,29.18
2022-08-02T13:22:37.369Z,29.28
2022-08-02T13:25:52.917Z,29.30
2022-08-02T13:28:55.635Z,28.97
2022-08-02T13:31:58.258Z,28.71
2022-08-02T13:35:00.841Z,28.59
2022-08-02T13:38:06.450Z,28.57
2022-08-02T13:41:10.469Z,28.25
2022-08-02T13:44:13.042Z,28.38
2022-08-02T13:47:15.864Z,28.35
2022-08-02T13:50:38.440Z,28.69
2022-08-02T13:53:41.106Z,28.81
2022-08-02T13:56:45.082Z,28.90
2022-08-02T13:59:58.295Z,29.19
2022-08-02T14:03:01.858Z,29.10
2022-08-02T14:06:06.649Z,29.55
2022-08-02T14:09:09.280Z,29.87
2022-08-02T14:12:19.771Z,29.87
2022-08-02T14:15:22.597Z,29.71
2022-08-02T14:18:25.282Z,29.37
2022-08-02T14:21:27.857Z,28.81
2022-08-02T14:24:31.635Z,28.63
2022-08-02T14:27:39.329Z,28.60
2022-08-02T14:30:42.662Z,28.50
2022-08-02T14:33:45.294Z,28.57
2022-08-02T14:36:53.314Z,28.67
2022-08-02T14:40:00.058Z,28.33
2022-08-02T14:43:05.286Z,28.14
2022-08-02T14:46:07.894Z,28.05
2022-08-02T14:49:12.175Z,27.91
2022-08-02T14:52:19.533Z,27.64
2022-08-02T14:55:22.221Z,27.51
2022-08-02T14:58:26.144Z,27.46
2022-08-02T15:01:28.798Z,27.36
2022-08-02T15:04:34.354Z,27.26
2022-08-02T15:07:49.557Z,27.09
2022-08-02T15:10:52.440Z,27.13
2022-08-02T15:13:59.137Z,26.94
2022-08-02T15:17:03.548Z,26.83
2022-08-02T15:20:25.516Z,26.76
2022-08-02T15:23:37.086Z,26.66
2022-08-02T15:26:40.291Z,26.88
2022-08-02T15:29:45.869Z,26.87
2022-08-02T15:32:53.365Z,26.86
2022-08-02T15:35:56.414Z,26.75
2022-08-02T15:38:58.982Z,26.87
2022-08-02T15:42:01.636Z,26.72
2022-08-02T15:45:06.250Z,26.56
2022-08-02T15:48:08.972Z,26.58
2022-08-02T15:51:11.622Z,26.73
2022-08-02T15:54:14.222Z,26.54
2022-08-02T15:57:16.772Z,26.52
2022-08-02T16:00:22.269Z,26.26
2022-08-02T16:03:24.875Z,26.21
2022-08-02T16:06:27.555Z,26.22
2022-08-02T16:09:30.693Z,25.90
2022-08-02T16:12:33.615Z,25.91
2022-08-02T16:15:37.534Z,25.76
2022-08-02T16:18:40.156Z,26.00
2022-08-02T16:21:42.807Z,26.08
2022-08-02T16:24:45.717Z,26.05
2022-08-02T16:27:59.431Z,25.97
2022-08-02T16:31:11.817Z,25.83
2022-08-02T16:34:15.788Z,26.10
2022-08-02T16:37:18.406Z,26.03
2022-08-02T16:40:21.167Z,25.96
2022-08-02T16:43:23.830Z,25.87
2022-08-02T16:46:31.531Z,25.77
2022-08-02T16:50:04.600Z,25.70
2022-08-02T16:52:58.878Z,25.71
2022-08-02T16:56:01.794Z,25.78
2022-08-02T16:59:04.527Z,25.72
2022-08-02T17:02:19.561Z,25.70
2022-08-02T17:05:24.359Z,25.63
2022-08-02T17:08:40.385Z,25.56
2022-08-02T17:11:57.842Z,25.58
2022-08-02T17:16:00.979Z,25.49
2022-08-02T17:18:26.948Z,25.42
2022-08-02T17:21:31.757Z,25.18
2022-08-02T17:24:34.383Z,25.10
2022-08-02T17:27:37.577Z,25.05
2022-08-02T17:30:40.241Z,25.05
2022-08-02T17:33:44.168Z,24.97
2022-08-02T17:36:49.846Z,24.99
2022-08-02T17:39:52.573Z,24.98
2022-08-02T17:42:55.174Z,25.01
2022-08-02T17:46:00.533Z,25.02
2022-08-02T17:49:20.763Z,25.03
2022-08-02T17:52:52.356Z,24.97
2022-08-02T17:55:50.886Z,24.88
2022-08-02T17:58:54.088Z,24.85
2022-08-02T18:01:58.487Z,24.87
2022-08-02T18:05:11.827Z,24.78
2022-08-02T18:08:18.366Z,24.71
2022-08-02T18:11:51.762Z,24.66
2022-08-02T18:14:49.199Z,24.62
2022-08-02T18:17:52.162Z,24.58
2022-08-02T18:21:15.606Z,24.49
2022-08-02T18:24:24.065Z,24.44
2022-08-02T18:27:26.840Z,24.39
2022-08-02T18:30:29.442Z,24.32
2022-08-02T18:33:57.863Z,24.29
2022-08-02T18:36:56.267Z,24.20
2022-08-02T18:39:58.886Z,24.20
2022-08-02T18:43:03.440Z,24.12
2022-08-02T18:46:15.731Z,24.02
2022-08-02T18:49:19.685Z,24.00
2022-08-02T18:52:31.549Z,23.93
2022-08-02T18:55:59.524Z,23.93
2022-08-02T18:58:58.409Z,23.93
2022-08-02T19:02:01.121Z,23.87
2022-08-02T19:05:06.891Z,23.86
2022-08-02T19:08:11.593Z,23.84
2022-08-02T19:11:14.242Z,23.71
2022-08-02T19:14:19.131Z,23.66
2022-08-02T19:17:55.197Z,23.61
2022-08-02T19:20:52.571Z,23.64
2022-08-02T19:23:56.528Z,23.60
2022-08-02T19:26:59.179Z,23.60
2022-08-02T19:30:16.879Z,23.59
2022-08-02T19:33:54.331Z,23.59
2022-08-02T19:36:42.066Z,23.52
2022-08-02T19:39:46.216Z,23.54
2022-08-02T19:44:21.516Z,23.51
2022-08-02T19:46:15.543Z,23.51
2022-08-02T19:49:39.151Z,23.50
2022-08-02T19:52:42.086Z,23.55
2022-08-02T19:56:00.158Z,23.51
2022-08-02T19:59:13.175Z,23.50
2022-08-02T20:02:17.299Z,23.49
2022-08-02T20:05:24.105Z,23.58
2022-08-02T20:08:31.924Z,23.50
2022-08-02T20:11:40.230Z,23.39
2022-08-02T20:14:50.970Z,23.40
2022-08-02T20:17:54.050Z,23.44
2022-08-02T20:20:56.703Z,23.51
2022-08-02T20:23:59.644Z,23.53
2022-08-02T20:27:04.491Z,23.43
2022-08-02T20:30:08.263Z,23.34
2022-08-02T20:33:21.651Z,23.29
2022-08-02T20:36:25.171Z,23.33
2022-08-02T20:39:42.841Z,23.25
2022-08-02T20:42:48.632Z,23.27
2022-08-02T20:45:51.551Z,23.29
2022-08-02T20:48:55.937Z,23.31
2022-08-02T20:52:02.151Z,23.37
2022-08-02T20:55:05.006Z,23.23
2022-08-02T20:58:11.665Z,23.15
2022-08-02T21:01:14.657Z,23.19
2022-08-02T21:04:19.368Z,23.11
2022-08-02T21:07:22.081Z,23.17
2022-08-02T21:10:24.729Z,23.07
2022-08-02T21:13:29.172Z,23.09
2022-08-02T21:16:32.040Z,23.11
2022-08-02T21:19:36.544Z,23.13
2022-08-02T21:22:46.847Z,22.87
2022-08-02T21:25:57.406Z,22.89
2022-08-02T21:32:25.254Z,22.89
2022-08-02T21:35:28.080Z,22.75
2022-08-02T21:38:35.865Z,22.77
2022-08-02T21:41:45.929Z,22.69
2022-08-02T21:44:51.216Z,22.55
2022-08-02T21:47:53.833Z,22.51
2022-08-02T21:50:56.414Z,22.55
2022-08-02T21:54:18.197Z,22.37
2022-08-02T21:57:21.675Z,22.34
2022-08-02T22:00:28.841Z,22.26
2022-08-02T22:03:32.558Z,22.25
2022-08-02T22:06:35.590Z,22.42
2022-08-02T22:09:43.628Z,22.24
2022-08-02T22:12:47.830Z,22.29
2022-08-02T22:15:51.782Z,22.22
2022-08-02T22:18:55.178Z,22.27
2022-08-02T22:22:00.380Z,22.20
2022-08-02T22:25:04.191Z,22.17
2022-08-02T22:28:36.768Z,22.20
2022-08-02T22:31:40.961Z,22.17
2022-08-02T22:34:51.718Z,22.00
2022-08-02T22:38:16.932Z,22.03
2022-08-02T22:41:18.462Z,22.04
2022-08-02T22:44:21.091Z,21.98
2022-08-02T22:47:25.031Z,22.07
2022-08-02T22:50:29.539Z,22.09
2022-08-02T22:53:35.859Z,22.06
2022-08-02T22:56:38.849Z,22.20
2022-08-02T22:59:47.281Z,22.21
2022-08-02T23:02:52.864Z,22.00
2022-08-02T23:05:56.034Z,22.09
2022-08-02T23:08:58.669Z,22.07
2022-08-02T23:12:01.239Z,22.18
2022-08-02T23:15:04.387Z,22.21
2022-08-02T23:18:25.811Z,22.05
2022-08-02T23:22:01.360Z,22.13
2022-08-02T23:24:55.894Z,22.28
2022-08-02T23:27:58.651Z,22.13
2022-08-02T23:31:01.545Z,22.07
2022-08-02T23:34:06.009Z,22.12
2022-08-02T23:37:09.500Z,22.15
2022-08-02T23:40:12.397Z,22.16
2022-08-02T23:43:18.737Z,22.13
2022-08-02T23:46:21.333Z,22.10
2022-08-02T23:49:25.540Z,22.06
2022-08-02T23:52:28.249Z,22.24
2022-08-02T23:55:31.634Z,22.21
2022-08-02T23:58:34.267Z,22.26
